sensor_id;sensor_type;location;lat;lon;timestamp;P1;durP1;ratioP1;P2;durP2;ratioP2
11533;SDS011;5823;50.588;8.462;2023-05-29T00:01:21;0.20;;;0.20;;
11533;SDS011;5823;50.588;8.462;2023-05-29T00:03:49;0.30;;;0.30;;
11533;SDS011;5823;50.588;8.462;2023-05-29T00:06:15;0.20;;;0.20;;
11533;SDS011;5823;50.588;8.462;2023-05-29T00:08:41;0.30;;;0.30;;
11533;SDS011;5823;50.588;8.462;2023-05-29T00:11:07;0.35;;;0.35;;
11533;SDS011;5823;50.588;8.462;2023-05-29T00:13:35;0.20;;;0.20;;
11533;SDS011;5823;50.588;8.462;2023-05-29T00:16:01;0.30;;;0.30;;
11533;SDS011;5823;50.588;8.462;2023-05-29T00:18:28;0.40;;;0.40;;
11533;SDS011;5823;50.588;8.462;2023-05-29T00:20:54;0.30;;;0.30;;
11533;SDS011;5823;50.588;8.462;2023-05-29T00:23:21;0.40;;;0.40;;
11533;SDS011;5823;50.588;8.462;2023-05-29T00:25:47;0.28;;;0.28;;
11533;SDS011;5823;50.588;8.462;2023-05-29T00:28:13;0.38;;;0.38;;
11533;SDS011;5823;50.588;8.462;2023-05-29T00:30:41;0.40;;;0.40;;
11533;SDS011;5823;50.588;8.462;2023-05-29T00:33:07;0.35;;;0.35;;
11533;SDS011;5823;50.588;8.462;2023-05-29T00:35:34;0.28;;;0.28;;
11533;SDS011;5823;50.588;8.462;2023-05-29T00:38:00;0.20;;;0.20;;
11533;SDS011;5823;50.588;8.462;2023-05-29T00:40:26;0.30;;;0.30;;
11533;SDS011;5823;50.588;8.462;2023-05-29T00:42:52;0.32;;;0.32;;
11533;SDS011;5823;50.588;8.462;2023-05-29T00:45:19;0.40;;;0.40;;
11533;SDS011;5823;50.588;8.462;2023-05-29T00:47:46;0.20;;;0.20;;
11533;SDS011;5823;50.588;8.462;2023-05-29T00:50:13;0.10;;;0.10;;
11533;SDS011;5823;50.588;8.462;2023-05-29T00:52:40;0.30;;;0.30;;
11533;SDS011;5823;50.588;8.462;2023-05-29T00:55:07;0.30;;;0.30;;
11533;SDS011;5823;50.588;8.462;2023-05-29T00:57:35;0.20;;;0.20;;
11533;SDS011;5823;50.588;8.462;2023-05-29T01:00:01;0.50;;;0.50;;
11533;SDS011;5823;50.588;8.462;2023-05-29T01:02:29;0.22;;;0.22;;
11533;SDS011;5823;50.588;8.462;2023-05-29T01:04:56;0.40;;;0.40;;
11533;SDS011;5823;50.588;8.462;2023-05-29T01:07:23;0.40;;;0.40;;
11533;SDS011;5823;50.588;8.462;2023-05-29T01:09:49;0.50;;;0.50;;
11533;SDS011;5823;50.588;8.462;2023-05-29T01:12:27;0.28;;;0.28;;
11533;SDS011;5823;50.588;8.462;2023-05-29T01:15:00;0.40;;;0.40;;
11533;SDS011;5823;50.588;8.462;2023-05-29T01:17:32;0.47;;;0.47;;
11533;SDS011;5823;50.588;8.462;2023-05-29T01:20:14;0.30;;;0.30;;
11533;SDS011;5823;50.588;8.462;2023-05-29T01:22:50;0.30;;;0.30;;
11533;SDS011;5823;50.588;8.462;2023-05-29T01:25:21;0.40;;;0.40;;
11533;SDS011;5823;50.588;8.462;2023-05-29T01:27:50;0.20;;;0.20;;
11533;SDS011;5823;50.588;8.462;2023-05-29T01:30:18;0.30;;;0.30;;
11533;SDS011;5823;50.588;8.462;2023-05-29T01:32:44;0.20;;;0.20;;
11533;SDS011;5823;50.588;8.462;2023-05-29T01:35:10;0.30;;;0.30;;
11533;SDS011;5823;50.588;8.462;2023-05-29T01:37:37;1.40;;;0.30;;
11533;SDS011;5823;50.588;8.462;2023-05-29T01:40:03;0.40;;;0.40;;
11533;SDS011;5823;50.588;8.462;2023-05-29T01:42:30;0.38;;;0.38;;
11533;SDS011;5823;50.588;8.462;2023-05-29T01:44:58;0.32;;;0.32;;
11533;SDS011;5823;50.588;8.462;2023-05-29T01:47:24;0.30;;;0.30;;
11533;SDS011;5823;50.588;8.462;2023-05-29T01:49:51;0.30;;;0.30;;
11533;SDS011;5823;50.588;8.462;2023-05-29T01:52:17;0.28;;;0.28;;
11533;SDS011;5823;50.588;8.462;2023-05-29T01:54:44;0.20;;;0.20;;
11533;SDS011;5823;50.588;8.462;2023-05-29T01:57:10;0.08;;;0.08;;
11533;SDS011;5823;50.588;8.462;2023-05-29T01:59:36;0.30;;;0.30;;
11533;SDS011;5823;50.588;8.462;2023-05-29T02:02:07;0.25;;;0.25;;
11533;SDS011;5823;50.588;8.462;2023-05-29T02:04:33;0.30;;;0.30;;
11533;SDS011;5823;50.588;8.462;2023-05-29T02:07:00;0.40;;;0.40;;
11533;SDS011;5823;50.588;8.462;2023-05-29T02:09:26;0.30;;;0.30;;
11533;SDS011;5823;50.588;8.462;2023-05-29T02:11:52;0.47;;;0.40;;
11533;SDS011;5823;50.588;8.462;2023-05-29T02:14:19;0.35;;;0.35;;
11533;SDS011;5823;50.588;8.462;2023-05-29T02:16:45;0.30;;;0.30;;
11533;SDS011;5823;50.588;8.462;2023-05-29T02:19:12;0.20;;;0.20;;
11533;SDS011;5823;50.588;8.462;2023-05-29T02:21:39;0.35;;;0.35;;
11533;SDS011;5823;50.588;8.462;2023-05-29T02:24:05;0.28;;;0.28;;
11533;SDS011;5823;50.588;8.462;2023-05-29T02:26:32;0.55;;;0.43;;
11533;SDS011;5823;50.588;8.462;2023-05-29T02:28:58;0.32;;;0.32;;
11533;SDS011;5823;50.588;8.462;2023-05-29T02:31:24;0.45;;;0.45;;
11533;SDS011;5823;50.588;8.462;2023-05-29T02:33:50;0.30;;;0.30;;
11533;SDS011;5823;50.588;8.462;2023-05-29T02:36:18;0.30;;;0.30;;
11533;SDS011;5823;50.588;8.462;2023-05-29T02:38:44;0.30;;;0.30;;
11533;SDS011;5823;50.588;8.462;2023-05-29T02:41:10;0.32;;;0.30;;
11533;SDS011;5823;50.588;8.462;2023-05-29T02:43:37;0.43;;;0.38;;
11533;SDS011;5823;50.588;8.462;2023-05-29T02:46:03;0.40;;;0.35;;
11533;SDS011;5823;50.588;8.462;2023-05-29T02:48:29;0.20;;;0.20;;
11533;SDS011;5823;50.588;8.462;2023-05-29T02:50:55;0.38;;;0.30;;
11533;SDS011;5823;50.588;8.462;2023-05-29T02:53:23;0.30;;;0.30;;
11533;SDS011;5823;50.588;8.462;2023-05-29T02:55:49;0.70;;;0.40;;
11533;SDS011;5823;50.588;8.462;2023-05-29T02:58:17;0.35;;;0.35;;
11533;SDS011;5823;50.588;8.462;2023-05-29T03:00:43;0.35;;;0.35;;
11533;SDS011;5823;50.588;8.462;2023-05-29T03:03:11;0.40;;;0.40;;
11533;SDS011;5823;50.588;8.462;2023-05-29T03:05:37;0.30;;;0.30;;
11533;SDS011;5823;50.588;8.462;2023-05-29T03:08:03;0.45;;;0.45;;
11533;SDS011;5823;50.588;8.462;2023-05-29T03:10:31;0.20;;;0.20;;
11533;SDS011;5823;50.588;8.462;2023-05-29T03:12:57;0.40;;;0.40;;
11533;SDS011;5823;50.588;8.462;2023-05-29T03:15:23;0.50;;;0.50;;
11533;SDS011;5823;50.588;8.462;2023-05-29T03:17:49;0.30;;;0.30;;
11533;SDS011;5823;50.588;8.462;2023-05-29T03:20:15;0.20;;;0.20;;
11533;SDS011;5823;50.588;8.462;2023-05-29T03:22:42;0.30;;;0.30;;
11533;SDS011;5823;50.588;8.462;2023-05-29T03:25:08;0.38;;;0.38;;
11533;SDS011;5823;50.588;8.462;2023-05-29T03:27:36;0.20;;;0.20;;
11533;SDS011;5823;50.588;8.462;2023-05-29T03:30:02;0.28;;;0.28;;
11533;SDS011;5823;50.588;8.462;2023-05-29T03:32:29;0.30;;;0.30;;
11533;SDS011;5823;50.588;8.462;2023-05-29T03:34:55;0.43;;;0.43;;
11533;SDS011;5823;50.588;8.462;2023-05-29T03:37:22;0.20;;;0.20;;
11533;SDS011;5823;50.588;8.462;2023-05-29T03:39:48;0.30;;;0.30;;
11533;SDS011;5823;50.588;8.462;2023-05-29T03:42:15;0.30;;;0.10;;
11533;SDS011;5823;50.588;8.462;2023-05-29T03:44:42;0.35;;;0.35;;
11533;SDS011;5823;50.588;8.462;2023-05-29T03:47:08;0.30;;;0.30;;
11533;SDS011;5823;50.588;8.462;2023-05-29T03:49:35;0.13;;;0.13;;
11533;SDS011;5823;50.588;8.462;2023-05-29T03:52:01;0.52;;;0.40;;
11533;SDS011;5823;50.588;8.462;2023-05-29T03:54:27;0.20;;;0.20;;
11533;SDS011;5823;50.588;8.462;2023-05-29T03:56:53;0.55;;;0.22;;
11533;SDS011;5823;50.588;8.462;2023-05-29T03:59:20;0.30;;;0.30;;
11533;SDS011;5823;50.588;8.462;2023-05-29T04:01:47;0.25;;;0.20;;
11533;SDS011;5823;50.588;8.462;2023-05-29T04:04:14;0.20;;;0.10;;
11533;SDS011;5823;50.588;8.462;2023-05-29T04:06:40;0.20;;;0.20;;
11533;SDS011;5823;50.588;8.462;2023-05-29T04:09:06;0.43;;;0.38;;
11533;SDS011;5823;50.588;8.462;2023-05-29T04:11:33;0.15;;;0.15;;
11533;SDS011;5823;50.588;8.462;2023-05-29T04:14:00;0.30;;;0.30;;
11533;SDS011;5823;50.588;8.462;2023-05-29T04:16:26;0.25;;;0.25;;
11533;SDS011;5823;50.588;8.462;2023-05-29T04:18:54;0.17;;;0.17;;
11533;SDS011;5823;50.588;8.462;2023-05-29T04:21:20;0.20;;;0.20;;
11533;SDS011;5823;50.588;8.462;2023-05-29T04:23:47;0.20;;;0.20;;
11533;SDS011;5823;50.588;8.462;2023-05-29T04:26:13;0.38;;;0.38;;
11533;SDS011;5823;50.588;8.462;2023-05-29T04:28:39;0.28;;;0.28;;
11533;SDS011;5823;50.588;8.462;2023-05-29T04:31:05;0.35;;;0.35;;
11533;SDS011;5823;50.588;8.462;2023-05-29T04:33:31;0.22;;;0.22;;
11533;SDS011;5823;50.588;8.462;2023-05-29T04:35:59;0.22;;;0.22;;
11533;SDS011;5823;50.588;8.462;2023-05-29T04:38:28;1.20;;;0.40;;
11533;SDS011;5823;50.588;8.462;2023-05-29T04:40:56;0.38;;;0.38;;
11533;SDS011;5823;50.588;8.462;2023-05-29T04:43:23;0.25;;;0.22;;
11533;SDS011;5823;50.588;8.462;2023-05-29T04:45:51;0.40;;;0.40;;
11533;SDS011;5823;50.588;8.462;2023-05-29T04:48:17;0.40;;;0.40;;
11533;SDS011;5823;50.588;8.462;2023-05-29T04:50:43;0.40;;;0.40;;
11533;SDS011;5823;50.588;8.462;2023-05-29T04:53:11;0.30;;;0.30;;
11533;SDS011;5823;50.588;8.462;2023-05-29T04:55:38;0.20;;;0.20;;
11533;SDS011;5823;50.588;8.462;2023-05-29T04:58:04;0.30;;;0.30;;
11533;SDS011;5823;50.588;8.462;2023-05-29T05:00:31;0.30;;;0.30;;
11533;SDS011;5823;50.588;8.462;2023-05-29T05:02:57;0.22;;;0.22;;
11533;SDS011;5823;50.588;8.462;2023-05-29T05:05:23;0.10;;;0.10;;
11533;SDS011;5823;50.588;8.462;2023-05-29T05:07:50;0.20;;;0.20;;
11533;SDS011;5823;50.588;8.462;2023-05-29T05:10:17;0.20;;;0.20;;
11533;SDS011;5823;50.588;8.462;2023-05-29T05:12:44;0.30;;;0.30;;
11533;SDS011;5823;50.588;8.462;2023-05-29T05:15:10;0.20;;;0.20;;
11533;SDS011;5823;50.588;8.462;2023-05-29T05:17:36;0.25;;;0.25;;
11533;SDS011;5823;50.588;8.462;2023-05-29T05:20:02;0.20;;;0.20;;
11533;SDS011;5823;50.588;8.462;2023-05-29T05:22:30;0.30;;;0.30;;
11533;SDS011;5823;50.588;8.462;2023-05-29T05:24:57;0.13;;;0.13;;
11533;SDS011;5823;50.588;8.462;2023-05-29T05:27:25;0.20;;;0.20;;
11533;SDS011;5823;50.588;8.462;2023-05-29T05:29:52;0.40;;;0.40;;
11533;SDS011;5823;50.588;8.462;2023-05-29T05:32:18;0.20;;;0.20;;
11533;SDS011;5823;50.588;8.462;2023-05-29T05:34:44;0.22;;;0.22;;
11533;SDS011;5823;50.588;8.462;2023-05-29T05:37:10;0.20;;;0.20;;
11533;SDS011;5823;50.588;8.462;2023-05-29T05:39:37;0.30;;;0.30;;
11533;SDS011;5823;50.588;8.462;2023-05-29T05:42:03;0.22;;;0.20;;
11533;SDS011;5823;50.588;8.462;2023-05-29T05:44:31;0.30;;;0.30;;
11533;SDS011;5823;50.588;8.462;2023-05-29T05:46:57;0.45;;;0.45;;
11533;SDS011;5823;50.588;8.462;2023-05-29T05:49:23;0.40;;;0.40;;
11533;SDS011;5823;50.588;8.462;2023-05-29T05:51:49;0.28;;;0.22;;
11533;SDS011;5823;50.588;8.462;2023-05-29T05:54:16;0.80;;;0.65;;
11533;SDS011;5823;50.588;8.462;2023-05-29T05:56:42;0.50;;;0.50;;
11533;SDS011;5823;50.588;8.462;2023-05-29T05:59:08;0.60;;;0.60;;
11533;SDS011;5823;50.588;8.462;2023-05-29T06:01:36;0.50;;;0.50;;
11533;SDS011;5823;50.588;8.462;2023-05-29T06:04:03;0.60;;;0.60;;
11533;SDS011;5823;50.588;8.462;2023-05-29T06:06:29;0.80;;;0.68;;
11533;SDS011;5823;50.588;8.462;2023-05-29T06:08:56;0.20;;;0.20;;
11533;SDS011;5823;50.588;8.462;2023-05-29T06:11:23;0.40;;;0.40;;
11533;SDS011;5823;50.588;8.462;2023-05-29T06:13:50;0.57;;;0.52;;
11533;SDS011;5823;50.588;8.462;2023-05-29T06:16:17;0.52;;;0.52;;
11533;SDS011;5823;50.588;8.462;2023-05-29T06:18:45;0.30;;;0.30;;
11533;SDS011;5823;50.588;8.462;2023-05-29T06:21:11;0.30;;;0.30;;
11533;SDS011;5823;50.588;8.462;2023-05-29T06:23:37;0.20;;;0.20;;
11533;SDS011;5823;50.588;8.462;2023-05-29T06:26:04;0.30;;;0.30;;
11533;SDS011;5823;50.588;8.462;2023-05-29T06:28:31;0.20;;;0.20;;
11533;SDS011;5823;50.588;8.462;2023-05-29T06:30:57;0.50;;;0.50;;
11533;SDS011;5823;50.588;8.462;2023-05-29T06:33:23;0.70;;;0.60;;
11533;SDS011;5823;50.588;8.462;2023-05-29T06:35:50;0.63;;;0.63;;
11533;SDS011;5823;50.588;8.462;2023-05-29T06:38:17;0.50;;;0.50;;
11533;SDS011;5823;50.588;8.462;2023-05-29T06:40:43;0.50;;;0.40;;
11533;SDS011;5823;50.588;8.462;2023-05-29T06:43:09;0.55;;;0.55;;
11533;SDS011;5823;50.588;8.462;2023-05-29T06:45:36;1.38;;;1.00;;
11533;SDS011;5823;50.588;8.462;2023-05-29T06:48:02;0.60;;;0.60;;
11533;SDS011;5823;50.588;8.462;2023-05-29T06:50:29;1.38;;;0.80;;
11533;SDS011;5823;50.588;8.462;2023-05-29T06:52:56;0.43;;;0.43;;
11533;SDS011;5823;50.588;8.462;2023-05-29T06:55:22;0.82;;;0.75;;
11533;SDS011;5823;50.588;8.462;2023-05-29T06:57:49;0.70;;;0.70;;
11533;SDS011;5823;50.588;8.462;2023-05-29T07:00:15;0.40;;;0.40;;
11533;SDS011;5823;50.588;8.462;2023-05-29T07:02:41;0.60;;;0.60;;
11533;SDS011;5823;50.588;8.462;2023-05-29T07:05:08;0.63;;;0.63;;
11533;SDS011;5823;50.588;8.462;2023-05-29T07:07:34;1.75;;;1.17;;
11533;SDS011;5823;50.588;8.462;2023-05-29T07:10:01;0.85;;;0.85;;
11533;SDS011;5823;50.588;8.462;2023-05-29T07:12:28;0.75;;;0.75;;
11533;SDS011;5823;50.588;8.462;2023-05-29T07:14:54;1.48;;;1.27;;
11533;SDS011;5823;50.588;8.462;2023-05-29T07:17:20;0.68;;;0.65;;
11533;SDS011;5823;50.588;8.462;2023-05-29T07:19:46;1.30;;;1.00;;
11533;SDS011;5823;50.588;8.462;2023-05-29T07:22:14;0.80;;;0.80;;
11533;SDS011;5823;50.588;8.462;2023-05-29T07:24:40;0.75;;;0.70;;
11533;SDS011;5823;50.588;8.462;2023-05-29T07:27:08;0.43;;;0.38;;
11533;SDS011;5823;50.588;8.462;2023-05-29T07:29:34;0.50;;;0.50;;
11533;SDS011;5823;50.588;8.462;2023-05-29T07:32:00;0.60;;;0.52;;
11533;SDS011;5823;50.588;8.462;2023-05-29T07:34:26;0.60;;;0.60;;
11533;SDS011;5823;50.588;8.462;2023-05-29T07:36:56;0.50;;;0.50;;
11533;SDS011;5823;50.588;8.462;2023-05-29T07:39:23;0.52;;;0.52;;
11533;SDS011;5823;50.588;8.462;2023-05-29T07:41:50;0.88;;;0.80;;
11533;SDS011;5823;50.588;8.462;2023-05-29T07:44:17;0.60;;;0.60;;
11533;SDS011;5823;50.588;8.462;2023-05-29T07:46:43;0.60;;;0.60;;
11533;SDS011;5823;50.588;8.462;2023-05-29T07:49:10;1.17;;;1.08;;
11533;SDS011;5823;50.588;8.462;2023-05-29T07:51:36;0.70;;;0.70;;
11533;SDS011;5823;50.588;8.462;2023-05-29T07:54:02;0.60;;;0.60;;
11533;SDS011;5823;50.588;8.462;2023-05-29T07:56:28;0.70;;;0.70;;
11533;SDS011;5823;50.588;8.462;2023-05-29T07:58:56;1.13;;;0.93;;
11533;SDS011;5823;50.588;8.462;2023-05-29T08:01:23;0.70;;;0.70;;
11533;SDS011;5823;50.588;8.462;2023-05-29T08:03:49;1.25;;;0.88;;
11533;SDS011;5823;50.588;8.462;2023-05-29T08:06:16;0.70;;;0.70;;
11533;SDS011;5823;50.588;8.462;2023-05-29T08:08:42;0.95;;;0.70;;
11533;SDS011;5823;50.588;8.462;2023-05-29T08:11:10;0.60;;;0.60;;
11533;SDS011;5823;50.588;8.462;2023-05-29T08:13:36;0.30;;;0.30;;
11533;SDS011;5823;50.588;8.462;2023-05-29T08:16:02;1.08;;;0.75;;
11533;SDS011;5823;50.588;8.462;2023-05-29T08:18:30;1.27;;;0.93;;
11533;SDS011;5823;50.588;8.462;2023-05-29T08:20:57;0.70;;;0.70;;
11533;SDS011;5823;50.588;8.462;2023-05-29T08:23:24;0.60;;;0.60;;
11533;SDS011;5823;50.588;8.462;2023-05-29T08:25:50;0.43;;;0.43;;
11533;SDS011;5823;50.588;8.462;2023-05-29T08:28:16;0.35;;;0.35;;
11533;SDS011;5823;50.588;8.462;2023-05-29T08:30:42;1.15;;;0.80;;
11533;SDS011;5823;50.588;8.462;2023-05-29T08:33:09;0.70;;;0.70;;
11533;SDS011;5823;50.588;8.462;2023-05-29T08:35:36;0.60;;;0.60;;
11533;SDS011;5823;50.588;8.462;2023-05-29T08:38:02;0.65;;;0.65;;
11533;SDS011;5823;50.588;8.462;2023-05-29T08:40:29;0.75;;;0.75;;
11533;SDS011;5823;50.588;8.462;2023-05-29T08:42:56;0.57;;;0.57;;
11533;SDS011;5823;50.588;8.462;2023-05-29T08:45:23;0.60;;;0.57;;
11533;SDS011;5823;50.588;8.462;2023-05-29T08:47:51;0.60;;;0.60;;
11533;SDS011;5823;50.588;8.462;2023-05-29T08:50:17;0.50;;;0.50;;
11533;SDS011;5823;50.588;8.462;2023-05-29T08:52:47;0.60;;;0.60;;
11533;SDS011;5823;50.588;8.462;2023-05-29T08:55:13;0.70;;;0.70;;
11533;SDS011;5823;50.588;8.462;2023-05-29T08:57:40;0.77;;;0.77;;
11533;SDS011;5823;50.588;8.462;2023-05-29T09:00:08;0.82;;;0.80;;
11533;SDS011;5823;50.588;8.462;2023-05-29T09:02:37;1.00;;;0.80;;
11533;SDS011;5823;50.588;8.462;2023-05-29T09:05:03;0.82;;;0.82;;
11533;SDS011;5823;50.588;8.462;2023-05-29T09:07:31;0.93;;;0.88;;
11533;SDS011;5823;50.588;8.462;2023-05-29T09:09:59;0.90;;;0.82;;
11533;SDS011;5823;50.588;8.462;2023-05-29T09:12:26;0.73;;;0.73;;
11533;SDS011;5823;50.588;8.462;2023-05-29T09:14:52;0.60;;;0.60;;
11533;SDS011;5823;50.588;8.462;2023-05-29T09:17:18;1.20;;;0.80;;
11533;SDS011;5823;50.588;8.462;2023-05-29T09:19:45;0.70;;;0.70;;
11533;SDS011;5823;50.588;8.462;2023-05-29T09:22:11;0.70;;;0.70;;
11533;SDS011;5823;50.588;8.462;2023-05-29T09:24:39;0.68;;;0.68;;
11533;SDS011;5823;50.588;8.462;2023-05-29T09:27:07;0.82;;;0.82;;
11533;SDS011;5823;50.588;8.462;2023-05-29T09:29:37;0.82;;;0.80;;
11533;SDS011;5823;50.588;8.462;2023-05-29T09:32:06;0.82;;;0.82;;
11533;SDS011;5823;50.588;8.462;2023-05-29T09:34:33;0.90;;;0.80;;
11533;SDS011;5823;50.588;8.462;2023-05-29T09:37:00;0.98;;;0.90;;
11533;SDS011;5823;50.588;8.462;2023-05-29T09:39:32;0.85;;;0.85;;
11533;SDS011;5823;50.588;8.462;2023-05-29T09:41:58;0.70;;;0.70;;
11533;SDS011;5823;50.588;8.462;2023-05-29T09:44:27;0.50;;;0.50;;
11533;SDS011;5823;50.588;8.462;2023-05-29T09:46:56;0.70;;;0.70;;
11533;SDS011;5823;50.588;8.462;2023-05-29T09:49:23;0.75;;;0.75;;
11533;SDS011;5823;50.588;8.462;2023-05-29T09:51:51;1.15;;;0.80;;
11533;SDS011;5823;50.588;8.462;2023-05-29T09:54:19;0.93;;;0.90;;
11533;SDS011;5823;50.588;8.462;2023-05-29T09:56:45;0.65;;;0.65;;
11533;SDS011;5823;50.588;8.462;2023-05-29T09:59:13;0.90;;;0.90;;
11533;SDS011;5823;50.588;8.462;2023-05-29T10:01:41;0.80;;;0.80;;
11533;SDS011;5823;50.588;8.462;2023-05-29T10:04:09;0.75;;;0.75;;
11533;SDS011;5823;50.588;8.462;2023-05-29T10:06:35;2.05;;;0.90;;
11533;SDS011;5823;50.588;8.462;2023-05-29T10:09:02;0.75;;;0.75;;
11533;SDS011;5823;50.588;8.462;2023-05-29T10:11:29;0.75;;;0.75;;
11533;SDS011;5823;50.588;8.462;2023-05-29T10:13:56;0.55;;;0.55;;
11533;SDS011;5823;50.588;8.462;2023-05-29T10:16:23;1.75;;;1.20;;
11533;SDS011;5823;50.588;8.462;2023-05-29T10:18:53;1.15;;;1.05;;
11533;SDS011;5823;50.588;8.462;2023-05-29T10:21:20;0.70;;;0.70;;
11533;SDS011;5823;50.588;8.462;2023-05-29T10:23:48;1.33;;;1.20;;
11533;SDS011;5823;50.588;8.462;2023-05-29T10:26:15;1.23;;;1.08;;
11533;SDS011;5823;50.588;8.462;2023-05-29T10:28:44;0.70;;;0.70;;
11533;SDS011;5823;50.588;8.462;2023-05-29T10:31:14;1.08;;;0.98;;
11533;SDS011;5823;50.588;8.462;2023-05-29T10:33:47;1.20;;;1.10;;
11533;SDS011;5823;50.588;8.462;2023-05-29T10:36:17;1.73;;;1.00;;
11533;SDS011;5823;50.588;8.462;2023-05-29T10:38:44;0.80;;;0.80;;
11533;SDS011;5823;50.588;8.462;2023-05-29T10:43:56;1.88;;;1.30;;
11533;SDS011;5823;50.588;8.462;2023-05-29T10:46:28;1.23;;;1.13;;
11533;SDS011;5823;50.588;8.462;2023-05-29T10:49:15;0.90;;;0.90;;
11533;SDS011;5823;50.588;8.462;2023-05-29T10:51:43;1.10;;;1.00;;
11533;SDS011;5823;50.588;8.462;2023-05-29T10:54:09;1.10;;;1.00;;
11533;SDS011;5823;50.588;8.462;2023-05-29T10:56:36;1.50;;;0.85;;
11533;SDS011;5823;50.588;8.462;2023-05-29T10:59:02;1.30;;;1.20;;
11533;SDS011;5823;50.588;8.462;2023-05-29T11:01:28;0.90;;;0.90;;
11533;SDS011;5823;50.588;8.462;2023-05-29T11:06:36;1.42;;;1.17;;
11533;SDS011;5823;50.588;8.462;2023-05-29T11:09:04;0.90;;;0.90;;
11533;SDS011;5823;50.588;8.462;2023-05-29T11:11:33;1.35;;;1.00;;
11533;SDS011;5823;50.588;8.462;2023-05-29T11:14:02;1.20;;;1.10;;
11533;SDS011;5823;50.588;8.462;2023-05-29T11:16:35;0.88;;;0.88;;
11533;SDS011;5823;50.588;8.462;2023-05-29T11:19:03;1.60;;;1.10;;
11533;SDS011;5823;50.588;8.462;2023-05-29T11:21:31;1.88;;;1.23;;
11533;SDS011;5823;50.588;8.462;2023-05-29T11:23:59;0.85;;;0.82;;
11533;SDS011;5823;50.588;8.462;2023-05-29T11:26:29;0.98;;;0.90;;
11533;SDS011;5823;50.588;8.462;2023-05-29T11:28:57;1.00;;;0.90;;
11533;SDS011;5823;50.588;8.462;2023-05-29T11:31:23;1.20;;;1.10;;
11533;SDS011;5823;50.588;8.462;2023-05-29T11:33:50;0.90;;;0.90;;
11533;SDS011;5823;50.588;8.462;2023-05-29T11:36:17;1.00;;;1.00;;
11533;SDS011;5823;50.588;8.462;2023-05-29T11:38:44;1.25;;;1.15;;
11533;SDS011;5823;50.588;8.462;2023-05-29T11:41:10;1.10;;;0.95;;
11533;SDS011;5823;50.588;8.462;2023-05-29T11:43:37;0.80;;;0.80;;
11533;SDS011;5823;50.588;8.462;2023-05-29T11:46:13;1.00;;;0.90;;
11533;SDS011;5823;50.588;8.462;2023-05-29T11:48:44;0.80;;;0.80;;
11533;SDS011;5823;50.588;8.462;2023-05-29T11:51:10;1.10;;;1.02;;
11533;SDS011;5823;50.588;8.462;2023-05-29T11:53:39;0.70;;;0.70;;
11533;SDS011;5823;50.588;8.462;2023-05-29T11:56:06;0.90;;;0.90;;
11533;SDS011;5823;50.588;8.462;2023-05-29T11:58:32;1.10;;;1.00;;
11533;SDS011;5823;50.588;8.462;2023-05-29T12:01:00;0.85;;;0.85;;
11533;SDS011;5823;50.588;8.462;2023-05-29T12:03:26;0.90;;;0.90;;
11533;SDS011;5823;50.588;8.462;2023-05-29T12:05:52;1.00;;;0.98;;
11533;SDS011;5823;50.588;8.462;2023-05-29T12:08:21;1.08;;;0.98;;
11533;SDS011;5823;50.588;8.462;2023-05-29T12:10:48;1.40;;;1.20;;
11533;SDS011;5823;50.588;8.462;2023-05-29T12:13:15;2.10;;;1.58;;
11533;SDS011;5823;50.588;8.462;2023-05-29T12:15:42;1.70;;;1.30;;
11533;SDS011;5823;50.588;8.462;2023-05-29T12:18:09;1.60;;;1.30;;
11533;SDS011;5823;50.588;8.462;2023-05-29T12:20:36;1.48;;;1.30;;
11533;SDS011;5823;50.588;8.462;2023-05-29T12:23:02;1.50;;;1.20;;
11533;SDS011;5823;50.588;8.462;2023-05-29T12:25:28;1.27;;;1.17;;
11533;SDS011;5823;50.588;8.462;2023-05-29T12:27:55;1.30;;;1.20;;
11533;SDS011;5823;50.588;8.462;2023-05-29T12:30:23;1.20;;;1.10;;
11533;SDS011;5823;50.588;8.462;2023-05-29T12:32:50;1.30;;;1.20;;
11533;SDS011;5823;50.588;8.462;2023-05-29T12:35:19;1.08;;;1.00;;
11533;SDS011;5823;50.588;8.462;2023-05-29T12:37:45;1.73;;;1.27;;
11533;SDS011;5823;50.588;8.462;2023-05-29T12:40:19;0.95;;;0.85;;
11533;SDS011;5823;50.588;8.462;2023-05-29T12:42:46;1.00;;;0.95;;
11533;SDS011;5823;50.588;8.462;2023-05-29T12:45:12;1.17;;;1.08;;
11533;SDS011;5823;50.588;8.462;2023-05-29T12:47:44;0.90;;;0.77;;
11533;SDS011;5823;50.588;8.462;2023-05-29T12:50:21;1.13;;;1.02;;
11533;SDS011;5823;50.588;8.462;2023-05-29T12:52:52;1.05;;;0.95;;
11533;SDS011;5823;50.588;8.462;2023-05-29T12:55:18;1.20;;;1.10;;
11533;SDS011;5823;50.588;8.462;2023-05-29T12:57:45;0.98;;;0.80;;
11533;SDS011;5823;50.588;8.462;2023-05-29T13:00:11;0.73;;;0.73;;
11533;SDS011;5823;50.588;8.462;2023-05-29T13:02:38;1.58;;;1.30;;
11533;SDS011;5823;50.588;8.462;2023-05-29T13:05:04;1.30;;;1.20;;
11533;SDS011;5823;50.588;8.462;2023-05-29T13:07:33;1.10;;;1.10;;
11533;SDS011;5823;50.588;8.462;2023-05-29T13:09:59;1.15;;;1.05;;
11533;SDS011;5823;50.588;8.462;2023-05-29T13:12:26;1.67;;;1.38;;
11533;SDS011;5823;50.588;8.462;2023-05-29T13:14:53;1.00;;;1.00;;
11533;SDS011;5823;50.588;8.462;2023-05-29T13:17:20;1.20;;;1.10;;
11533;SDS011;5823;50.588;8.462;2023-05-29T13:19:47;1.05;;;1.02;;
11533;SDS011;5823;50.588;8.462;2023-05-29T13:22:13;0.80;;;0.80;;
11533;SDS011;5823;50.588;8.462;2023-05-29T13:24:41;1.17;;;1.08;;
11533;SDS011;5823;50.588;8.462;2023-05-29T13:27:07;1.10;;;1.00;;
11533;SDS011;5823;50.588;8.462;2023-05-29T13:29:33;1.40;;;1.20;;
11533;SDS011;5823;50.588;8.462;2023-05-29T13:32:00;0.95;;;0.95;;
11533;SDS011;5823;50.588;8.462;2023-05-29T13:34:26;1.05;;;1.00;;
11533;SDS011;5823;50.588;8.462;2023-05-29T13:36:53;1.00;;;0.90;;
11533;SDS011;5823;50.588;8.462;2023-05-29T13:39:19;0.73;;;0.73;;
11533;SDS011;5823;50.588;8.462;2023-05-29T13:41:47;0.90;;;0.90;;
11533;SDS011;5823;50.588;8.462;2023-05-29T13:44:13;0.80;;;0.80;;
11533;SDS011;5823;50.588;8.462;2023-05-29T13:46:40;1.80;;;1.67;;
11533;SDS011;5823;50.588;8.462;2023-05-29T13:49:06;1.33;;;1.20;;
11533;SDS011;5823;50.588;8.462;2023-05-29T13:51:33;1.10;;;1.00;;
11533;SDS011;5823;50.588;8.462;2023-05-29T13:54:00;0.98;;;0.90;;
11533;SDS011;5823;50.588;8.462;2023-05-29T13:56:27;1.10;;;1.00;;
11533;SDS011;5823;50.588;8.462;2023-05-29T13:58:55;1.00;;;1.00;;
11533;SDS011;5823;50.588;8.462;2023-05-29T14:01:21;0.90;;;0.90;;
11533;SDS011;5823;50.588;8.462;2023-05-29T14:03:49;1.52;;;1.15;;
11533;SDS011;5823;50.588;8.462;2023-05-29T14:06:15;1.30;;;1.20;;
11533;SDS011;5823;50.588;8.462;2023-05-29T14:08:41;1.20;;;1.10;;
11533;SDS011;5823;50.588;8.462;2023-05-29T14:11:08;0.90;;;0.90;;
11533;SDS011;5823;50.588;8.462;2023-05-29T14:13:34;1.00;;;1.00;;
11533;SDS011;5823;50.588;8.462;2023-05-29T14:16:01;1.38;;;1.17;;
11533;SDS011;5823;50.588;8.462;2023-05-29T14:18:28;1.20;;;1.10;;
11533;SDS011;5823;50.588;8.462;2023-05-29T14:20:54;1.10;;;1.00;;
11533;SDS011;5823;50.588;8.462;2023-05-29T14:23:20;1.40;;;1.30;;
11533;SDS011;5823;50.588;8.462;2023-05-29T14:25:46;1.60;;;1.50;;
11533;SDS011;5823;50.588;8.462;2023-05-29T14:28:12;1.13;;;1.13;;
11533;SDS011;5823;50.588;8.462;2023-05-29T14:30:39;1.17;;;1.10;;
11533;SDS011;5823;50.588;8.462;2023-05-29T14:33:06;1.20;;;1.10;;
11533;SDS011;5823;50.588;8.462;2023-05-29T14:35:33;2.42;;;1.50;;
11533;SDS011;5823;50.588;8.462;2023-05-29T14:37:59;1.45;;;1.35;;
11533;SDS011;5823;50.588;8.462;2023-05-29T14:40:25;1.38;;;1.27;;
11533;SDS011;5823;50.588;8.462;2023-05-29T14:42:51;1.30;;;1.00;;
11533;SDS011;5823;50.588;8.462;2023-05-29T14:45:17;1.23;;;1.13;;
11533;SDS011;5823;50.588;8.462;2023-05-29T14:47:44;0.88;;;0.88;;
11533;SDS011;5823;50.588;8.462;2023-05-29T14:50:11;1.23;;;1.02;;
11533;SDS011;5823;50.588;8.462;2023-05-29T14:52:37;1.10;;;1.00;;
11533;SDS011;5823;50.588;8.462;2023-05-29T14:55:04;1.00;;;1.00;;
11533;SDS011;5823;50.588;8.462;2023-05-29T14:57:31;1.00;;;1.00;;
11533;SDS011;5823;50.588;8.462;2023-05-29T14:59:59;1.60;;;1.15;;
11533;SDS011;5823;50.588;8.462;2023-05-29T15:02:25;0.85;;;0.85;;
11533;SDS011;5823;50.588;8.462;2023-05-29T15:04:52;0.68;;;0.68;;